Morristown, NJ (07960)

08:56 EDT le 30 octobre 2014 (GMT -0400)
Morris Township / Fairchild | Change Station
CLOSE
Current Station
Stations météorologiques personnelles
Location: Morris Plains, NJ
Altitude: 390 ft
Stations météo à proximité

Alt. 390 ft 40.82 °N, 74.49 °W | Updated 8 seconds ago

Brouillard
Brouillard
45.0 ° F
Paraît 45 ° F
N
0.0
Vent Variable Vent de Nord
Gusts 0.0 mph

Aujourd'hui
Haut(e) -- | Bas -- ° F
--% Risque de précip.
Hier
Haut(e) -- | Bas -- ° F
Precip. -- pouce
7:26 AM 5:56 PM
Lune montante, 43% visible
Pression 30.00 pouce
Visibilité 7.0 Miles terrestres
Nuages Peu 4000 ft
Refroidissement éolien 45 ° F
Point de rosée 45 ° F
Humidité 99%
Précipitations 0.00 pouce
Profondeur de la couche neigeuse Non disponible.
UV 0 sur 12
Pollen .90 sur 12
Qualité de l'air Non disponible.
Flu Activity Non disponible.
METAR KMMU 301150Z 00000KT 7SM MIFG FEW040 04/03 A3000

More Conditions Fewer Conditions

Pression 30.00 pouce
Visibilité 7.0 Miles terrestres
Nuages Peu 4000 ft
Refroidissement éolien 45 ° F
Point de rosée 45 ° F
Humidité 99%
Précipitations 0.00 pouce
Profondeur de la couche neigeuse Non disponible.
UV 0 sur 12
Pollen .90 sur 12
Qualité de l'air Non disponible.
Flu Activity Non disponible.
METAR KMMU 301150Z 00000KT 7SM MIFG FEW040 04/03 A3000

More Conditions Fewer Conditions

Nowcast | as of 7:58 am EDT on October 30, 2014

Patchy dense fog will continue to burn off as the morning wears on. Some areas may still see reduced visibilities under a half mile for a time this morning before conditions improve by late morning. Motorists should exercise caution for rapidly changing visibilities. Please allow extra time to reach your destination and use low beam headlights.

×

10-Day Weather Forecast

Almanac

Astronomie

Oct. 30, 2014 Lever Coucher
Temps réel
Crépuscule civil
Crépuscule nautique
Crépuscule astronomique
Lune
Durée de lumière visible
Longueur du jour
Tomorrow will be .
, % of the Moon is Illuminated

Extrêmes aujourd'hui

State Highs State Lows

Community

WunderPhotos

Upload Photos

1,766,353 Photos téléchargées !

WunderBlogs® & News

Nearby

Qualité de l'air

  Qualité de l'air Indice de la qualité de l'air Polluant
Not available.

Épaisseur de neige

Station Depth Altitude

Activité sismique

Ville Distance Mag. Time & Date
Minimum magnitude displayed is 2.5.

Températures des eaux côtières

Lieu Température

Stations météo à proximité